HUAL Seoul — LADO6 — position and weather

sailwx.info

Track history (hours):
 
Tides and Currents Weather Stations Pressure Air Temp Water Temp Dewpoint Dewpoint Depression Visibility Wind Speed Wind Dir Waves Ship Positions

HUAL Seoul

Last reported at 2016-May-19 02:10 UTC. Time now 2016-May-31 18:04 UTC.
Position N 33°39' E 034°47'.
Warning: this ship's position is 12 days out of date.

Type: Cargo ship. MMSI: 257496000.

Date/timePositionNaut miles runAvg speedWind from/ knotsBaromVisibWave heightAir tempDewpointWater temp
2016-May-19 02:10N 33°39' E 034°47'18 0.7
2016-May-18 02:04N 33°57' E 034°52'917.6
2016-May-18 01:33N 33°57' E 034°41'1817.6
2016-May-18 00:34N 33°59' E 034°20'1817.7
2016-May-17 23:33N 33°60' E 033°59'1817.9
2016-May-17 22:32N 34°01' E 033°37'1818.1
2016-May-17 21:32N 34°02' E 033°15'1818.3
2016-May-17 20:34N 34°03' E 032°54'1818.2
2016-May-17 19:34N 34°04' E 032°32'1818.0
2016-May-17 18:34N 34°05' E 032°10'2017.6
2016-May-17 17:27N 34°06' E 031°46'1617.5
2016-May-17 16:34N 34°07' E 031°28'1817.6
2016-May-17 15:33N 34°09' E 031°06'3617.8
2016-May-17 13:32N 34°10' E 030°23'1818.1
2016-May-17 12:33N 34°12' E 030°01'74718.1
2016-May-15 19:12N 36°18' E 014°59'1218.2
2016-May-15 18:33N 36°22' E 014°45'1818.1
2016-May-15 17:34N 36°26' E 014°24'1818.1
2016-May-15 16:33N 36°31' E 014°02'1818.1
2016-May-15 15:34N 36°37' E 013°41'1817.4
2016-May-15 14:33N 36°42' E 013°20'65517.7
2016-May-14 01:33N 39°22' W 000°07'1010.0
2016-May-14 00:32N 39°26' W 000°18'0 0.0
2016-May-13 23:32N 39°26' W 000°18'0 0.0
2016-May-13 22:32N 39°26' W 000°18'0 0.0
2016-May-13 21:32N 39°26' W 000°18'0 0.0
2016-May-13 20:32N 39°26' W 000°18'0 0.0
2016-May-13 19:32N 39°26' W 000°18'0 0.0
2016-May-13 18:32N 39°26' W 000°18'0 0.0
2016-May-13 17:32N 39°26' W 000°18'0 0.0
2016-May-13 16:32N 39°26' W 000°18'5 5.0
2016-May-13 15:34N 39°25' W 000°12'8812.6
2016-May-13 08:33N 37°57' W 000°11'1717.1
2016-May-13 07:33N 37°42' W 000°23'1716.5
2016-May-13 06:33N 37°29' W 000°35'1616.4
2016-May-13 05:33N 37°19' W 000°51'22716.2
2016-May-12 15:33N 35°59' W 005°16'24 1.4
2016-May-11 23:07N 35°53' W 005°45'87217.5
2016-May-09 21:09N 38°06' W 023°44'916.2
2016-May-09 20:34N 38°08' W 023°56'1615.8
2016-May-09 19:34N 38°10' W 024°16'1616.0
2016-May-09 18:34N 38°13' W 024°36'1515.4
2016-May-09 17:33N 38°16' W 024°55'1616.0
2016-May-09 16:33N 38°23' W 025°14'1615.7
2016-May-09 15:33N 38°30' W 025°32'1615.7
2016-May-09 14:33N 38°37' W 025°49'1616.1
2016-May-09 13:33N 38°45' W 026°07'1616.1
2016-May-09 12:33N 38°53' W 026°26'2216.4
2016-May-09 11:13N 39°03' W 026°51'1116.4
2016-May-09 10:33N 39°09' W 027°03'1616.3
2016-May-09 09:33N 39°16' W 027°21'1616.3
2016-May-09 08:33N 39°24' W 027°40'1616.3
2016-May-09 07:33N 39°32' W 027°58'1616.0
2016-May-09 06:33N 39°40' W 028°16'1414.4
2016-May-09 05:33N 39°43' W 028°35'1515.0
2016-May-09 04:33N 39°46' W 028°54'1515.2
2016-May-09 03:34N 39°48' W 029°13'1515.2
2016-May-09 02:33N 39°51' W 029°33'  
Track history (hours):
 
Tides and Currents Weather Stations Pressure Air Temp Water Temp Dewpoint Dewpoint Depression Visibility Wind Speed Wind Dir Waves Ship Positions

HUAL Seoul

Last reported at 2016-May-19 02:10 UTC. Time now 2016-May-31 18:04 UTC.
Position N 33°39' E 034°47'.
Warning: this ship's position is 12 days out of date.

Type: Cargo ship. MMSI: 257496000.

Date/timePositionNaut miles runAvg speedWind from/ knotsBaromVisibWave heightAir tempDewpointWater temp
2016-May-19 02:10N 33°39' E 034°47'18 0.7
2016-May-18 02:04N 33°57' E 034°52'917.6
2016-May-18 01:33N 33°57' E 034°41'1817.6
2016-May-18 00:34N 33°59' E 034°20'1817.7
2016-May-17 23:33N 33°60' E 033°59'1817.9
2016-May-17 22:32N 34°01' E 033°37'1818.1
2016-May-17 21:32N 34°02' E 033°15'1818.3
2016-May-17 20:34N 34°03' E 032°54'1818.2
2016-May-17 19:34N 34°04' E 032°32'1818.0
2016-May-17 18:34N 34°05' E 032°10'2017.6
2016-May-17 17:27N 34°06' E 031°46'1617.5
2016-May-17 16:34N 34°07' E 031°28'1817.6
2016-May-17 15:33N 34°09' E 031°06'3617.8
2016-May-17 13:32N 34°10' E 030°23'1818.1
2016-May-17 12:33N 34°12' E 030°01'74718.1
2016-May-15 19:12N 36°18' E 014°59'1218.2
2016-May-15 18:33N 36°22' E 014°45'1818.1
2016-May-15 17:34N 36°26' E 014°24'1818.1
2016-May-15 16:33N 36°31' E 014°02'1818.1
2016-May-15 15:34N 36°37' E 013°41'1817.4
2016-May-15 14:33N 36°42' E 013°20'65517.7
2016-May-14 01:33N 39°22' W 000°07'1010.0
2016-May-14 00:32N 39°26' W 000°18'0 0.0
2016-May-13 23:32N 39°26' W 000°18'0 0.0
2016-May-13 22:32N 39°26' W 000°18'0 0.0
2016-May-13 21:32N 39°26' W 000°18'0 0.0
2016-May-13 20:32N 39°26' W 000°18'0 0.0
2016-May-13 19:32N 39°26' W 000°18'0 0.0
2016-May-13 18:32N 39°26' W 000°18'0 0.0
2016-May-13 17:32N 39°26' W 000°18'0 0.0
2016-May-13 16:32N 39°26' W 000°18'5 5.0
2016-May-13 15:34N 39°25' W 000°12'8812.6
2016-May-13 08:33N 37°57' W 000°11'1717.1
2016-May-13 07:33N 37°42' W 000°23'1716.5
2016-May-13 06:33N 37°29' W 000°35'1616.4
2016-May-13 05:33N 37°19' W 000°51'22716.2
2016-May-12 15:33N 35°59' W 005°16'24 1.4
2016-May-11 23:07N 35°53' W 005°45'87217.5
2016-May-09 21:09N 38°06' W 023°44'916.2
2016-May-09 20:34N 38°08' W 023°56'1615.8
2016-May-09 19:34N 38°10' W 024°16'1616.0
2016-May-09 18:34N 38°13' W 024°36'1515.4
2016-May-09 17:33N 38°16' W 024°55'1616.0
2016-May-09 16:33N 38°23' W 025°14'1615.7
2016-May-09 15:33N 38°30' W 025°32'1615.7
2016-May-09 14:33N 38°37' W 025°49'1616.1
2016-May-09 13:33N 38°45' W 026°07'1616.1
2016-May-09 12:33N 38°53' W 026°26'2216.4
2016-May-09 11:13N 39°03' W 026°51'1116.4
2016-May-09 10:33N 39°09' W 027°03'1616.3
2016-May-09 09:33N 39°16' W 027°21'1616.3
2016-May-09 08:33N 39°24' W 027°40'1616.3
2016-May-09 07:33N 39°32' W 027°58'1616.0
2016-May-09 06:33N 39°40' W 028°16'1414.4
2016-May-09 05:33N 39°43' W 028°35'1515.0
2016-May-09 04:33N 39°46' W 028°54'1515.2
2016-May-09 03:34N 39°48' W 029°13'1515.2
2016-May-09 02:33N 39°51' W 029°33'  

Dump ship's entire track history